Cherry Grove, Ohio
Current Conditions -  °F | °C
As of 6:53 PM on Sunday 21 Dec 2014 (Local Time) from KLUK Reporting Station
Clear Clear  
Wind Chill: 28°   Ceiling: Unl
Heat Index: 28°   Visibility: 9mi
Dew Point: 24°   Wind: 3mph
Humidity: 85%   Direction: 60°ENE
Pressure: 30.19"   Gusts: NA
Location:  39.0659°N, 84.278°W
Report Text: KLUK 212353Z 06003KT 9SM CLR M02/M04 A3019 RMK AO2 SLP228 T10221044 10028 21022 58008
Loading
Personal Weather Stations






























Interactive Weather Map New forecast layout! Learn more

10-Day Weather Forecast

Advertisements
Track Severe Weather on mobile